sensor_id;sensor_type;location;lat;lon;timestamp;pressure;altitude;pressure_sealevel;temperature;humidity
38191;BME280;25191;47.510;19.124;2023-12-07T00:09:06;100086.06;;;20.17;50.78
38191;BME280;25191;47.510;19.124;2023-12-07T00:29:07;100078.25;;;20.15;50.69
38191;BME280;25191;47.510;19.124;2023-12-07T00:49:07;100083.03;;;20.21;50.41
38191;BME280;25191;47.510;19.124;2023-12-07T01:09:08;100077.56;;;20.24;50.18
38191;BME280;25191;47.510;19.124;2023-12-07T01:29:13;100076.13;;;20.20;50.02
38191;BME280;25191;47.510;19.124;2023-12-07T01:49:16;100065.13;;;20.26;50.37
38191;BME280;25191;47.510;19.124;2023-12-07T02:09:17;100068.94;;;20.22;50.26
38191;BME280;25191;47.510;19.124;2023-12-07T02:29:17;100069.06;;;20.21;49.96
38191;BME280;25191;47.510;19.124;2023-12-07T02:49:18;100071.56;;;20.22;50.27
38191;BME280;25191;47.510;19.124;2023-12-07T03:09:18;100074.94;;;20.24;50.01
38191;BME280;25191;47.510;19.124;2023-12-07T03:29:19;100093.47;;;20.23;49.98
38191;BME280;25191;47.510;19.124;2023-12-07T03:49:19;100100.25;;;20.25;49.56
38191;BME280;25191;47.510;19.124;2023-12-07T04:09:19;100109.09;;;20.24;49.77
38191;BME280;25191;47.510;19.124;2023-12-07T04:29:20;100123.81;;;20.27;49.72
38191;BME280;25191;47.510;19.124;2023-12-07T04:49:20;100136.47;;;20.22;49.73
38191;BME280;25191;47.510;19.124;2023-12-07T05:09:21;100147.72;;;20.24;49.70
38191;BME280;25191;47.510;19.124;2023-12-07T05:29:22;100179.84;;;20.95;48.72
38191;BME280;25191;47.510;19.124;2023-12-07T05:49:22;100182.59;;;21.17;48.80
38191;BME280;25191;47.510;19.124;2023-12-07T06:09:22;100205.66;;;21.24;49.20
38191;BME280;25191;47.510;19.124;2023-12-07T06:29:42;100214.28;;;21.15;47.74
38191;BME280;25191;47.510;19.124;2023-12-07T06:49:42;100246.84;;;21.25;48.67
38191;BME280;25191;47.510;19.124;2023-12-07T07:09:42;100256.75;;;21.33;48.18
38191;BME280;25191;47.510;19.124;2023-12-07T07:29:43;100270.50;;;21.37;47.79
38191;BME280;25191;47.510;19.124;2023-12-07T07:49:44;100285.47;;;21.36;47.71
38191;BME280;25191;47.510;19.124;2023-12-07T08:09:44;100303.41;;;21.31;47.75
38191;BME280;25191;47.510;19.124;2023-12-07T08:29:45;100303.44;;;21.42;47.50
38191;BME280;25191;47.510;19.124;2023-12-07T08:49:46;100303.66;;;21.51;47.24
38191;BME280;25191;47.510;19.124;2023-12-07T09:09:46;100303.53;;;21.52;47.27
38191;BME280;25191;47.510;19.124;2023-12-07T09:29:51;100317.06;;;21.59;47.00
38191;BME280;25191;47.510;19.124;2023-12-07T09:49:52;100306.84;;;21.54;46.30
38191;BME280;25191;47.510;19.124;2023-12-07T10:09:52;100310.34;;;21.55;46.42
38191;BME280;25191;47.510;19.124;2023-12-07T10:29:52;100306.84;;;21.54;46.33
38191;BME280;25191;47.510;19.124;2023-12-07T10:49:54;100305.69;;;21.47;46.03
38191;BME280;25191;47.510;19.124;2023-12-07T11:10:03;100317.91;;;21.59;46.54
38191;BME280;25191;47.510;19.124;2023-12-07T11:30:07;100333.19;;;21.54;46.84
38191;BME280;25191;47.510;19.124;2023-12-07T11:50:09;100327.59;;;21.59;46.19
38191;BME280;25191;47.510;19.124;2023-12-07T12:10:09;100335.38;;;21.49;45.96
38191;BME280;25191;47.510;19.124;2023-12-07T12:30:11;100344.72;;;21.53;45.42
38191;BME280;25191;47.510;19.124;2023-12-07T12:50:38;100358.97;;;21.51;45.68
38191;BME280;25191;47.510;19.124;2023-12-07T13:10:39;100379.34;;;21.49;45.48
38191;BME280;25191;47.510;19.124;2023-12-07T13:30:40;100381.84;;;21.50;44.93
38191;BME280;25191;47.510;19.124;2023-12-07T13:50:42;100395.75;;;21.52;44.88
38191;BME280;25191;47.510;19.124;2023-12-07T14:10:42;100413.09;;;21.55;45.06
38191;BME280;25191;47.510;19.124;2023-12-07T14:30:43;100442.34;;;21.63;45.50
38191;BME280;25191;47.510;19.124;2023-12-07T14:50:43;100474.34;;;21.58;45.57
38191;BME280;25191;47.510;19.124;2023-12-07T15:10:44;100480.53;;;21.46;45.63
38191;BME280;25191;47.510;19.124;2023-12-07T15:30:44;100501.22;;;21.39;45.72
38191;BME280;25191;47.510;19.124;2023-12-07T15:50:48;100506.00;;;21.46;46.19
38191;BME280;25191;47.510;19.124;2023-12-07T16:10:49;100526.47;;;21.31;46.55
38191;BME280;25191;47.510;19.124;2023-12-07T16:30:50;100549.66;;;21.14;46.49
38191;BME280;25191;47.510;19.124;2023-12-07T16:50:53;100550.66;;;21.00;46.53
38191;BME280;25191;47.510;19.124;2023-12-07T17:10:56;100580.06;;;20.94;46.86
38191;BME280;25191;47.510;19.124;2023-12-07T17:30:57;100587.16;;;20.93;46.66
38191;BME280;25191;47.510;19.124;2023-12-07T17:50:58;100592.41;;;20.93;46.32
38191;BME280;25191;47.510;19.124;2023-12-07T18:10:59;100599.59;;;20.78;46.38
38191;BME280;25191;47.510;19.124;2023-12-07T18:31:00;100621.13;;;20.59;46.95
38191;BME280;25191;47.510;19.124;2023-12-07T18:51:02;100620.78;;;20.77;47.34
38191;BME280;25191;47.510;19.124;2023-12-07T19:11:02;100626.66;;;20.81;47.99
38191;BME280;25191;47.510;19.124;2023-12-07T19:31:04;100621.53;;;20.79;48.25
38191;BME280;25191;47.510;19.124;2023-12-07T19:51:05;100624.53;;;20.86;49.01
38191;BME280;25191;47.510;19.124;2023-12-07T20:11:06;100645.53;;;20.74;48.96
38191;BME280;25191;47.510;19.124;2023-12-07T20:31:07;100650.34;;;20.68;49.45
38191;BME280;25191;47.510;19.124;2023-12-07T20:51:07;100679.56;;;20.39;48.30
38191;BME280;25191;47.510;19.124;2023-12-07T21:11:07;100690.38;;;20.60;49.35
38191;BME280;25191;47.510;19.124;2023-12-07T21:31:09;100694.06;;;20.57;49.35
38191;BME280;25191;47.510;19.124;2023-12-07T21:51:10;100697.84;;;20.53;49.32
38191;BME280;25191;47.510;19.124;2023-12-07T22:11:10;100702.56;;;20.48;49.53
38191;BME280;25191;47.510;19.124;2023-12-07T22:31:10;100695.22;;;20.40;49.80
38191;BME280;25191;47.510;19.124;2023-12-07T22:51:11;100676.28;;;20.35;50.30
38191;BME280;25191;47.510;19.124;2023-12-07T23:11:11;100661.78;;;20.29;50.20
38191;BME280;25191;47.510;19.124;2023-12-07T23:31:12;100659.25;;;20.28;50.67
38191;BME280;25191;47.510;19.124;2023-12-07T23:51:14;100648.75;;;20.28;50.45
